Time;durP1;ratioP1;P1;durP2;ratioP2;P2;SDS_P1;SDS_P2;PMS_P1;PMS_P2;Temp;Humidity;BMP_temperature;BMP_pressure;BME280_temperature;BME280_humidity;BME280_pressure;Samples;Min_cycle;Max_cycle;Signal;HPM_P1;HPM_P2
2022/02/04 00:01:43;;;;;;;10.20;7.30;;;;;;;4.73;87.16;97237.44;5068627;28;20488;-60
2022/02/04 00:23:36;;;;;;;9.18;6.30;;;;;;;4.64;85.66;97287.03;5079797;28;20044;-60
2022/02/04 00:26:11;;;;;;;9.63;5.90;;;;;;;4.73;85.14;97282.22;5086622;28;20244;-59
2022/02/04 00:33:39;;;;;;;10.00;7.05;;;;;;;4.57;85.76;97284.34;5067898;28;20662;-60
2022/02/04 00:36:10;;;;;;;10.90;6.18;;;;;;;4.51;86.24;97278.03;5084237;28;20602;-59
2022/02/04 00:38:41;;;;;;;9.20;5.43;;;;;;;4.51;85.70;97278.03;5074731;28;20048;-59
2022/02/04 00:41:10;;;;;;;10.07;6.28;;;;;;;4.46;86.29;97283.19;5082543;28;20044;-61
2022/02/04 00:43:38;;;;;;;9.10;5.30;;;;;;;4.49;86.28;97279.28;5088332;28;20048;-59
2022/02/04 00:57:14;;;;;;;10.13;5.35;;;;;;;4.49;86.16;97287.31;5062808;28;20117;-59
2022/02/04 01:26:38;;;;;;;10.68;4.93;;;;;;;4.39;86.53;97319.94;5086462;28;20052;-59
2022/02/04 01:29:06;;;;;;;7.90;4.80;;;;;;;4.28;87.26;97311.53;5086241;28;20048;-61
2022/02/04 01:31:33;;;;;;;9.63;5.32;;;;;;;4.22;87.57;97309.72;5084922;28;20032;-61
2022/02/04 01:34:00;;;;;;;8.30;4.45;;;;;;;4.34;86.47;97300.97;5076003;28;20044;-60
2022/02/04 01:36:26;;;;;;;7.72;4.13;;;;;;;4.45;86.34;97297.63;5086443;28;20093;-61
2022/02/04 01:38:53;;;;;;;8.20;4.70;;;;;;;4.36;86.80;97298.94;5085582;28;20048;-61
2022/02/04 01:41:20;;;;;;;9.73;4.85;;;;;;;4.34;86.90;97299.13;5086071;28;20043;-61
2022/02/04 01:43:48;;;;;;;9.05;4.28;;;;;;;4.42;86.22;97301.56;5084104;28;20735;-60
2022/02/04 01:46:15;;;;;;;6.75;4.18;;;;;;;4.51;85.98;97304.00;5066922;28;20097;-61
2022/02/04 01:48:42;;;;;;;6.35;3.92;;;;;;;4.52;85.64;97303.78;5084998;28;20446;-61
2022/02/04 01:51:13;;;;;;;9.10;4.15;;;;;;;4.39;86.43;97304.66;5080350;28;20044;-61
2022/02/04 01:53:41;;;;;;;7.10;3.97;;;;;;;4.46;86.58;97306.50;5085726;28;20097;-61
2022/02/04 01:56:11;;;;;;;6.75;4.38;;;;;;;4.43;86.78;97299.72;5069624;28;20037;-61
2022/02/04 01:58:39;;;;;;;6.45;3.72;;;;;;;4.33;87.28;97296.66;5069055;28;20518;-61
2022/02/04 02:01:06;;;;;;;7.40;3.88;;;;;;;4.34;87.43;97296.44;5086159;28;20425;-61
2022/02/04 02:03:32;;;;;;;8.98;4.53;;;;;;;4.37;87.59;97296.03;5078858;28;20036;-61
2022/02/04 02:06:05;;;;;;;9.23;4.28;;;;;;;4.33;88.21;97299.34;5080917;28;20048;-60
2022/02/04 02:08:32;;;;;;;8.70;3.83;;;;;;;4.16;88.76;97300.66;5079326;28;20037;-61
2022/02/04 02:10:59;;;;;;;7.88;4.40;;;;;;;4.20;89.07;97297.56;5077762;28;20040;-60
2022/02/04 02:16:15;;;;;;;8.88;4.43;;;;;;;4.29;88.87;97294.44;5085312;28;20048;-61
2022/02/04 02:54:57;;;;;;;7.47;3.97;;;;;;;4.12;89.73;97288.72;5062950;28;20049;-61
2022/02/04 03:02:45;;;;;;;9.32;4.47;;;;;;;4.17;89.17;97293.44;5082722;28;20048;-60
2022/02/04 03:05:12;;;;;;;6.55;3.75;;;;;;;4.11;89.11;97297.78;5089924;28;20078;-60
2022/02/04 03:07:38;;;;;;;6.88;3.65;;;;;;;4.14;89.31;97297.38;5081208;28;20040;-58
2022/02/04 03:10:05;;;;;;;7.55;3.78;;;;;;;4.16;89.73;97294.47;5089645;28;20047;-61
2022/02/04 03:12:32;;;;;;;7.28;4.45;;;;;;;4.06;89.72;97310.19;5084943;28;20057;-60
2022/02/04 03:14:59;;;;;;;6.40;3.40;;;;;;;4.15;89.01;97300.88;5088360;28;20044;-60
2022/02/04 03:17:26;;;;;;;9.75;4.18;;;;;;;4.13;89.18;97294.91;5082243;28;20412;-60
2022/02/04 03:19:57;;;;;;;6.60;3.63;;;;;;;4.05;90.20;97301.31;5067587;28;20070;-61
2022/02/04 03:22:23;;;;;;;7.47;4.10;;;;;;;4.08;89.65;97300.88;5069398;28;20040;-61
2022/02/04 03:24:57;;;;;;;7.78;3.80;;;;;;;4.00;89.72;97298.44;5085908;28;20043;-60
2022/02/04 03:27:32;;;;;;;5.97;3.13;;;;;;;4.08;89.46;97297.38;5083327;28;20102;-61
2022/02/04 03:30:08;;;;;;;6.07;3.55;;;;;;;3.99;90.00;97305.69;5068483;28;20053;-59
2022/02/04 03:32:39;;;;;;;6.53;3.15;;;;;;;4.05;90.05;97297.81;5082758;28;20043;-61
2022/02/04 03:35:06;;;;;;;5.07;3.03;;;;;;;3.99;90.14;97302.16;5089128;28;20051;-60
2022/02/04 03:37:33;;;;;;;5.65;3.03;;;;;;;3.96;89.63;97315.97;5082627;28;20051;-61
2022/02/04 03:39:59;;;;;;;6.50;3.20;;;;;;;3.97;89.77;97302.38;5068588;28;20090;-59
2022/02/04 03:42:26;;;;;;;5.80;2.50;;;;;;;4.00;89.43;97301.97;5080971;28;20044;-59
2022/02/04 03:44:52;;;;;;;4.63;2.75;;;;;;;4.00;89.74;97303.81;5076726;28;20048;-60
2022/02/04 03:47:19;;;;;;;6.95;2.90;;;;;;;3.96;89.72;97299.91;5077526;28;20044;-61
2022/02/04 03:49:45;;;;;;;5.25;3.03;;;;;;;4.00;89.94;97307.31;5089350;28;20047;-61
2022/02/04 03:52:12;;;;;;;5.20;2.90;;;;;;;3.92;90.27;97312.91;5079049;28;20537;-61
2022/02/04 03:54:38;;;;;;;6.32;3.05;;;;;;;3.93;90.45;97311.88;5068903;28;20771;-60
2022/02/04 03:57:05;;;;;;;6.30;3.33;;;;;;;3.99;90.22;97310.19;5075169;28;20055;-61
2022/02/04 03:59:31;;;;;;;7.25;2.42;;;;;;;4.10;89.64;97322.97;5092755;28;20051;-61
2022/02/04 04:01:58;;;;;;;4.90;2.20;;;;;;;4.20;88.98;97316.31;5088157;28;20052;-59
2022/02/04 04:04:30;;;;;;;4.45;2.33;;;;;;;4.11;89.24;97316.56;5087455;28;20040;-59
2022/02/04 04:06:58;;;;;;;4.22;2.38;;;;;;;3.95;90.75;97315.16;5074085;28;20055;-61
2022/02/04 04:09:25;;;;;;;4.80;2.50;;;;;;;3.85;91.04;97312.94;5088401;28;20552;-61
2022/02/04 04:11:52;;;;;;;4.72;2.47;;;;;;;3.88;91.00;97314.34;5067531;28;20037;-61
2022/02/04 04:14:19;;;;;;;6.50;2.97;;;;;;;3.99;91.16;97327.13;5087793;28;20040;-61
2022/02/04 04:16:47;;;;;;;5.60;2.58;;;;;;;3.95;90.80;97325.06;5086769;28;20044;-61
2022/02/04 04:19:14;;;;;;;4.93;2.50;;;;;;;4.07;90.30;97322.53;5067867;28;20044;-61
2022/02/04 04:21:41;;;;;;;4.85;2.22;;;;;;;4.07;89.83;97320.69;5072440;28;20640;-60
2022/02/04 04:24:08;;;;;;;7.18;2.58;;;;;;;4.07;90.04;97327.91;5067708;28;20047;-60
2022/02/04 04:26:35;;;;;;;6.05;3.03;;;;;;;3.88;91.24;97325.88;5078799;28;20653;-60
2022/02/04 04:29:01;;;;;;;6.28;3.47;;;;;;;3.83;91.72;97322.22;5083465;28;20040;-61
2022/02/04 04:31:29;;;;;;;6.10;3.03;;;;;;;3.88;91.96;97330.44;5067968;28;20047;-61
2022/02/04 04:33:55;;;;;;;5.60;2.90;;;;;;;3.80;91.98;97327.97;5068196;28;20098;-60
2022/02/04 04:36:22;;;;;;;5.13;2.58;;;;;;;3.73;92.25;97328.00;5086287;28;20043;-60
2022/02/04 04:39:18;;;;;;;5.63;2.85;;;;;;;3.69;92.68;97337.47;5067751;28;20051;-60
2022/02/04 05:25:43;;;;;;;6.53;3.17;;;;;;;3.64;93.16;97335.41;5087256;28;20043;-59
2022/02/04 05:28:14;;;;;;;4.65;2.38;;;;;;;4.08;91.35;97351.81;5081725;28;20048;-59
2022/02/04 05:30:40;;;;;;;4.20;2.05;;;;;;;3.99;91.42;97340.50;5084581;28;20048;-59
2022/02/04 05:33:07;;;;;;;4.70;2.38;;;;;;;3.81;92.76;97343.84;5078863;28;20044;-59
2022/02/04 05:35:36;;;;;;;4.50;2.33;;;;;;;3.71;92.71;97338.06;5083417;28;20043;-64
2022/02/04 05:38:03;;;;;;;4.38;2.17;;;;;;;3.71;92.69;97333.53;5082350;28;20036;-64
2022/02/04 05:40:38;;;;;;;6.13;2.92;;;;;;;3.76;92.77;97346.31;5085997;28;20098;-64
2022/02/04 05:43:17;;;;;;;5.80;2.40;;;;;;;3.71;92.96;97349.63;5084105;28;20036;-64
2022/02/04 05:45:53;;;;;;;5.40;2.60;;;;;;;3.71;93.65;97344.25;5065398;28;20036;-64
2022/02/04 05:48:20;;;;;;;5.25;2.88;;;;;;;3.71;93.29;97338.06;5083669;28;20561;-64
2022/02/04 05:51:15;;;;;;;5.93;2.20;;;;;;;3.70;92.94;97339.94;5075689;28;20086;-64
2022/02/04 06:07:01;;;;;;;4.35;2.10;;;;;;;4.02;89.35;97358.81;5079831;28;20560;-64
2022/02/04 06:12:45;;;;;;;3.33;1.65;;;;;;;4.02;88.03;97363.38;5086311;28;20404;-68
2022/02/04 06:23:26;;;;;;;2.08;1.10;;;;;;;3.74;88.77;97359.09;5086361;28;20044;-66
2022/02/04 06:25:52;;;;;;;4.88;1.50;;;;;;;3.77;89.17;97362.16;5075668;28;20515;-55
2022/02/04 06:28:19;;;;;;;2.25;1.15;;;;;;;3.66;89.41;97361.97;5078545;28;20105;-53
2022/02/04 06:30:46;;;;;;;2.50;1.10;;;;;;;3.64;89.16;97359.50;5069068;28;20060;-49
2022/02/04 06:33:13;;;;;;;3.63;1.40;;;;;;;3.61;89.89;97365.28;5078690;28;20487;-50
2022/02/04 06:35:43;;;;;;;2.92;1.38;;;;;;;3.61;89.96;97357.25;5085374;28;20526;-52
2022/02/04 06:38:09;;;;;;;2.25;1.20;;;;;;;3.59;90.08;97359.31;5092914;28;20166;-51
2022/02/04 06:40:36;;;;;;;8.65;2.65;;;;;;;3.51;90.62;97361.16;5091514;28;20043;-50
2022/02/04 06:43:02;;;;;;;4.18;1.73;;;;;;;3.49;90.81;97355.19;5099305;28;20047;-54
2022/02/04 06:45:29;;;;;;;5.95;2.90;;;;;;;3.53;90.67;97358.28;5084733;28;20052;-51
2022/02/04 06:47:56;;;;;;;4.30;1.50;;;;;;;3.53;90.57;97360.94;5079370;28;20043;-49
2022/02/04 06:50:22;;;;;;;3.63;1.30;;;;;;;3.58;90.26;97365.69;5084629;28;20047;-52
2022/02/04 06:52:53;;;;;;;4.07;1.90;;;;;;;3.64;89.63;97368.38;5095042;28;20089;-50
2022/02/04 06:55:21;;;;;;;2.85;0.95;;;;;;;3.67;89.57;97366.28;5074891;28;20657;-51
2022/02/04 06:57:48;;;;;;;3.33;1.30;;;;;;;3.69;90.01;97369.59;5082753;28;20039;-51
2022/02/04 07:00:18;;;;;;;3.17;1.50;;;;;;;3.66;89.81;97365.50;5091655;28;20043;-49
2022/02/04 07:02:47;;;;;;;5.28;1.90;;;;;;;3.67;90.90;97364.44;5090679;28;20047;-46
2022/02/04 07:05:15;;;;;;;6.28;3.47;;;;;;;3.60;90.70;97368.97;5083956;28;20051;-48
2022/02/04 07:07:48;;;;;;;4.05;2.22;;;;;;;3.53;91.34;97360.16;5080577;28;20514;-50
2022/02/04 07:10:22;;;;;;;5.07;2.92;;;;;;;3.57;91.55;97370.22;5080774;28;20052;-48
2022/02/04 07:13:03;;;;;;;10.40;5.18;;;;;;;3.49;91.70;97370.44;5084980;28;20052;-68
2022/02/04 07:15:49;;;;;;;7.97;4.40;;;;;;;3.50;92.04;97369.38;5082931;28;20048;-65
2022/02/04 07:21:06;;;;;;;9.90;5.80;;;;;;;3.53;91.95;97368.19;5090582;28;20582;-65
2022/02/04 07:23:37;;;;;;;9.18;5.28;;;;;;;3.50;91.71;97372.91;5078289;28;20123;-66
2022/02/04 07:26:04;;;;;;;10.75;6.28;;;;;;;3.53;91.94;97366.31;5084777;28;20052;-65
2022/02/04 07:28:31;;;;;;;11.57;4.18;;;;;;;3.48;91.91;97369.63;5083341;28;20052;-66
2022/02/04 07:31:00;;;;;;;7.82;5.05;;;;;;;3.42;91.80;97370.44;5083483;28;20044;-64
2022/02/04 07:33:40;;;;;;;8.48;4.45;;;;;;;3.40;91.75;97361.78;5085212;28;20221;-66
2022/02/04 07:41:40;;;;;;;6.68;3.95;;;;;;;3.48;91.65;97364.28;5089102;28;20040;-65
2022/02/04 07:44:07;;;;;;;8.40;4.38;;;;;;;3.45;91.41;97364.66;5088826;28;20043;-65
2022/02/04 07:46:37;;;;;;;7.97;3.88;;;;;;;3.41;91.38;97373.31;5088547;28;20040;-65
2022/02/04 07:49:03;;;;;;;7.05;4.03;;;;;;;3.47;91.34;97375.19;5097288;28;20752;-66
2022/02/04 07:51:30;;;;;;;6.90;3.92;;;;;;;3.56;90.71;97378.44;5092556;28;20043;-65
2022/02/04 07:53:57;;;;;;;7.88;4.07;;;;;;;3.38;90.87;97366.50;5094465;28;20439;-65
2022/02/04 07:56:24;;;;;;;8.18;4.22;;;;;;;3.27;91.64;97370.63;5085196;28;20044;-65
2022/02/04 07:58:56;;;;;;;7.35;4.72;;;;;;;3.30;92.74;97372.91;5087544;28;20039;-66
2022/02/04 08:01:29;;;;;;;7.40;4.28;;;;;;;3.31;92.59;97365.72;5071777;28;20496;-65
2022/02/04 08:04:03;;;;;;;8.10;4.97;;;;;;;3.30;91.51;97369.38;5079911;28;20074;-65
2022/02/04 08:06:34;;;;;;;10.77;5.53;;;;;;;3.33;91.68;97369.00;5086353;28;20048;-66
2022/02/04 08:19:44;;;;;;;9.32;5.22;;;;;;;3.62;91.46;97362.38;5083917;28;20112;-66
2022/02/04 08:23:20;;;;;;;10.00;6.60;;;;;;;3.67;90.99;97356.41;5094266;28;20044;-65
2022/02/04 08:25:42;;;;;;;12.60;8.55;;;;;;;3.78;90.77;97357.63;5089999;28;20048;-65
2022/02/04 08:36:19;;;;;;;6.57;3.88;;;;;;;4.14;89.66;97371.59;5096870;28;20576;-66
2022/02/04 08:38:59;;;;;;;6.32;3.47;;;;;;;4.21;88.93;97367.03;5073479;28;20055;-66
2022/02/04 08:47:33;;;;;;;4.65;2.22;;;;;;;4.47;87.90;97367.13;5077915;28;20048;-66
2022/02/04 08:55:26;;;;;;;4.18;2.17;;;;;;;4.70;85.78;97361.25;5085908;28;20055;-65
2022/02/04 08:58:06;;;;;;;6.15;2.30;;;;;;;4.70;86.10;97358.56;5084591;28;20056;-66
2022/02/04 09:00:51;;;;;;;3.85;2.33;;;;;;;4.55;86.49;97358.84;5098717;28;20108;-66
2022/02/04 09:06:20;;;;;;;4.88;2.45;;;;;;;4.89;85.17;97356.00;5084431;28;20710;-66
2022/02/04 09:08:51;;;;;;;3.67;1.73;;;;;;;4.96;84.77;97359.47;5085458;28;20063;-67
2022/02/04 09:17:17;;;;;;;3.85;1.98;;;;;;;5.23;83.06;97353.91;5078613;28;20047;-66
2022/02/04 09:22:43;;;;;;;4.07;2.17;;;;;;;4.88;84.38;97362.41;5068198;28;20036;-67
2022/02/04 09:25:11;;;;;;;3.58;1.77;;;;;;;5.10;83.50;97362.06;5066823;28;20045;-67
2022/02/04 09:27:39;;;;;;;3.85;1.88;;;;;;;5.16;82.84;97350.47;5087083;28;20492;-65
2022/02/04 09:30:09;;;;;;;3.90;1.80;;;;;;;5.22;82.97;97341.53;5086644;28;20097;-65
2022/02/04 09:32:36;;;;;;;3.08;1.55;;;;;;;5.41;83.08;97342.41;5087645;28;20036;-66
2022/02/04 09:35:04;;;;;;;3.00;1.70;;;;;;;5.63;80.92;97333.16;5086942;28;20048;-66
2022/02/04 09:37:31;;;;;;;2.95;1.52;;;;;;;5.72;81.05;97329.13;5086212;28;20109;-66
2022/02/04 09:39:58;;;;;;;4.65;1.77;;;;;;;5.59;81.64;97338.97;5085438;28;20052;-66
2022/02/04 09:42:26;;;;;;;3.72;1.67;;;;;;;5.81;80.05;97327.81;5084321;28;20036;-65
2022/02/04 09:44:53;;;;;;;3.47;1.30;;;;;;;5.91;80.77;97323.78;5094943;28;20055;-67
2022/02/04 09:47:22;;;;;;;5.35;2.00;;;;;;;5.60;81.46;97335.22;5092433;28;20067;-67
2022/02/04 09:50:10;;;;;;;3.38;1.60;;;;;;;5.76;81.69;97332.19;5076510;28;20048;-66
2022/02/04 10:17:58;;;;;;;3.38;1.48;;;;;;;5.47;82.16;97333.50;5083084;28;20043;-66
2022/02/04 10:20:25;;;;;;;4.18;1.55;;;;;;;5.59;82.12;97327.38;5085867;28;20052;-65
2022/02/04 10:22:52;;;;;;;2.63;1.30;;;;;;;5.69;81.68;97330.41;5086553;28;20090;-67
2022/02/04 10:25:19;;;;;;;2.58;1.30;;;;;;;5.83;81.35;97330.28;5086492;28;20109;-65
2022/02/04 10:28:18;;;;;;;3.08;1.42;;;;;;;5.98;81.02;97324.53;5086220;28;20165;-64
2022/02/04 10:31:01;;;;;;;3.17;1.42;;;;;;;6.06;81.24;97326.13;5084467;28;20055;-65
2022/02/04 10:33:27;;;;;;;3.05;1.20;;;;;;;5.98;81.77;97325.34;5086259;28;20082;-65
2022/02/04 10:35:54;;;;;;;3.65;1.25;;;;;;;6.02;81.88;97322.22;5085814;28;20043;-65
2022/02/04 10:38:37;;;;;;;3.50;1.17;;;;;;;6.23;79.30;97320.97;5086223;28;20572;-66
2022/02/04 10:50:04;;;;;;;2.50;1.10;;;;;;;6.15;78.98;97318.59;5086378;28;20048;-65
2022/02/04 10:55:42;;;;;;;2.60;1.10;;;;;;;6.13;79.35;97315.28;5061557;28;20059;-65
2022/02/04 10:58:32;;;;;;;2.47;1.08;;;;;;;6.22;78.32;97308.56;5085277;28;20055;-65
2022/02/04 11:03:30;;;;;;;2.25;1.10;;;;;;;6.40;77.78;97296.97;5083377;28;20047;-65
2022/02/04 11:06:16;;;;;;;1.85;0.98;;;;;;;6.23;79.40;97297.59;5084252;28;20056;-65
2022/02/04 11:08:57;;;;;;;3.22;1.08;;;;;;;6.19;78.71;97298.28;5086044;28;20419;-65
2022/02/04 11:11:46;;;;;;;2.00;1.20;;;;;;;6.26;78.15;97295.50;5069961;28;20147;-65
2022/02/04 11:36:06;;;;;;;2.65;1.15;;;;;;;6.47;76.88;97270.00;5089141;28;20070;-65
2022/02/04 11:51:16;;;;;;;1.33;0.47;;;;;;;6.54;71.51;97249.19;5068325;28;20044;-65
2022/02/04 11:54:19;;;;;;;0.80;0.43;;;;;;;6.48;70.35;97250.94;5081225;28;20056;-65
2022/02/04 11:56:30;;;;;;;0.88;0.40;;;;;;;6.62;70.93;97254.25;5088279;28;20568;-65
2022/02/04 11:58:59;;;;;;;0.70;0.50;;;;;;;6.81;70.91;97248.00;5093078;28;20109;-65
2022/02/04 12:01:41;;;;;;;0.50;0.30;;;;;;;6.85;69.60;97244.59;5106866;28;20089;-65
2022/02/04 12:04:17;;;;;;;;;;;;;;;6.94;69.40;97241.56;5088640;28;20040;-65
2022/02/04 12:06:44;;;;;;;1.55;0.70;;;;;;;6.93;70.92;97229.97;5087492;28;19920;-65
2022/02/04 12:09:13;;;;;;;0.70;0.40;;;;;;;7.05;69.95;97213.84;5088516;28;20040;-65
2022/02/04 12:11:40;;;;;;;0.57;0.40;;;;;;;6.94;70.09;97206.59;5088515;28;20098;-65
2022/02/04 12:14:10;;;;;;;1.20;0.50;;;;;;;6.74;70.16;97205.03;5084748;28;20162;-64
2022/02/04 12:17:01;;;;;;;0.97;0.33;;;;;;;6.64;68.97;97211.00;5067908;28;20044;-65
2022/02/04 12:19:48;;;;;;;2.47;0.45;;;;;;;6.77;69.50;97209.94;5067636;28;20049;-65
2022/02/04 12:22:49;;;;;;;1.17;0.50;;;;;;;6.76;70.54;97206.47;5082179;28;20044;-65
2022/02/04 12:25:55;;;;;;;2.55;0.60;;;;;;;6.45;73.46;97207.53;5098553;28;20085;-66
2022/02/04 12:28:41;;;;;;;1.20;0.60;;;;;;;6.43;73.89;97197.00;5086896;28;20048;-65
2022/02/04 12:31:14;;;;;;;1.42;0.70;;;;;;;6.50;73.94;97189.66;5088574;28;20048;-65
2022/02/04 12:33:47;;;;;;;1.90;0.85;;;;;;;6.50;74.26;97186.94;5068244;28;20048;-65
2022/02/04 12:36:19;;;;;;;1.10;0.50;;;;;;;6.54;71.80;97183.81;5085420;28;20044;-65
2022/02/04 12:38:47;;;;;;;1.05;0.75;;;;;;;6.60;74.23;97175.63;5088497;28;20380;-65
2022/02/04 12:41:20;;;;;;;1.98;0.73;;;;;;;6.50;74.48;97176.19;5087345;28;20044;-65
2022/02/04 12:43:49;;;;;;;1.38;0.60;;;;;;;6.40;73.96;97175.13;5083499;28;20035;-65
2022/02/04 12:46:18;;;;;;;2.00;0.63;;;;;;;6.42;72.48;97173.03;5082995;28;20115;-66
2022/02/04 12:49:04;;;;;;;1.90;0.73;;;;;;;6.26;73.32;97167.25;5078436;28;20044;-66
2022/02/04 12:51:32;;;;;;;5.35;0.90;;;;;;;6.17;75.16;97174.00;5086311;28;20040;-66
2022/02/04 12:53:59;;;;;;;1.90;0.70;;;;;;;6.30;73.75;97170.31;5085763;28;20068;-66
2022/02/04 13:02:17;;;;;;;1.02;0.57;;;;;;;6.35;72.88;97157.81;5079039;28;20043;-66
2022/02/04 13:10:28;;;;;;;2.88;0.93;;;;;;;6.52;71.97;97161.72;5085330;28;20040;-65
2022/02/04 13:13:06;;;;;;;3.88;0.82;;;;;;;6.37;72.96;97153.03;5085566;28;20144;-65
2022/02/04 13:15:35;;;;;;;1.65;0.90;;;;;;;6.31;73.64;97148.59;5083187;28;20043;-67
2022/02/04 13:18:07;;;;;;;2.67;0.98;;;;;;;6.31;73.43;97151.28;5086909;28;20085;-65
2022/02/04 13:20:35;;;;;;;4.07;1.10;;;;;;;6.30;72.34;97138.06;5085717;28;20048;-66
2022/02/04 13:23:08;;;;;;;1.75;0.50;;;;;;;6.28;72.13;97134.75;5087414;28;20449;-65
2022/02/04 13:25:42;;;;;;;2.28;0.95;;;;;;;6.28;72.08;97140.13;5086425;28;20411;-66
2022/02/04 13:28:22;;;;;;;5.43;1.02;;;;;;;6.33;71.29;97130.34;5087287;28;20044;-65
2022/02/04 13:30:48;;;;;;;3.38;0.80;;;;;;;6.27;72.29;97125.88;5087294;28;20051;-65
2022/02/04 13:33:19;;;;;;;2.67;1.08;;;;;;;6.28;70.98;97124.84;5086707;28;20048;-65
2022/02/04 13:35:56;;;;;;;2.45;1.20;;;;;;;6.23;71.49;97125.50;5086986;28;20499;-66
2022/02/04 13:38:36;;;;;;;2.10;0.90;;;;;;;6.20;70.30;97125.16;5086725;28;20040;-66
2022/02/04 13:46:27;;;;;;;1.20;0.70;;;;;;;6.43;70.44;97126.25;5087887;28;20572;-64
2022/02/04 13:52:23;;;;;;;7.32;1.70;;;;;;;6.43;70.99;97137.00;5071585;28;20052;-64
2022/02/04 13:54:54;;;;;;;1.52;0.80;;;;;;;6.34;70.04;97133.84;5070287;28;20051;-65
2022/02/04 14:00:25;;;;;;;1.77;1.05;;;;;;;6.29;70.11;97115.72;5098179;28;20073;-65
2022/02/04 14:03:09;;;;;;;1.83;1.10;;;;;;;6.21;68.80;97122.25;5092030;28;20123;-65
2022/02/04 14:05:43;;;;;;;2.00;0.70;;;;;;;6.19;69.49;97112.78;5085646;28;20047;-66
2022/02/04 14:08:15;;;;;;;1.40;0.70;;;;;;;6.18;69.73;97113.81;5086825;28;20044;-67
2022/02/04 14:10:55;;;;;;;1.60;0.70;;;;;;;6.10;69.54;97115.78;5085952;28;20051;-66
2022/02/04 14:13:24;;;;;;;2.15;0.90;;;;;;;5.96;69.91;97115.13;5086923;28;20086;-66
2022/02/04 14:15:58;;;;;;;2.28;0.95;;;;;;;6.01;69.79;97111.72;5086609;28;20511;-66
2022/02/04 14:18:28;;;;;;;1.60;0.65;;;;;;;6.20;69.01;97103.66;5088651;28;20510;-66
2022/02/04 14:20:55;;;;;;;1.80;0.80;;;;;;;6.34;68.87;97106.97;5096752;28;20094;-66
2022/02/04 14:23:22;;;;;;;4.63;1.08;;;;;;;7.47;67.34;97097.06;5083743;28;20553;-67
2022/02/04 14:26:05;;;;;;;0.90;0.65;;;;;;;7.03;67.48;97090.25;5079339;28;20125;-65
2022/02/04 14:31:17;;;;;;;0.98;0.60;;;;;;;6.46;67.24;97105.13;5097776;28;20897;-66
2022/02/04 15:06:36;;;;;;;1.25;0.63;;;;;;;5.84;69.97;97047.91;5085007;28;20048;-65
2022/02/04 15:09:09;;;;;;;1.77;0.68;;;;;;;5.83;69.02;97048.94;5085325;28;20534;-65
2022/02/04 15:11:42;;;;;;;2.33;0.70;;;;;;;5.58;70.63;97046.41;5082759;28;20514;-66
2022/02/04 15:14:10;;;;;;;3.13;0.82;;;;;;;5.47;71.41;97046.16;5085191;28;20499;-66
2022/02/04 15:16:39;;;;;;;3.03;0.82;;;;;;;5.57;71.17;97047.47;5086007;28;20048;-66
2022/02/04 15:19:05;;;;;;;1.48;0.63;;;;;;;5.45;72.15;97047.41;5085821;28;20530;-65
2022/02/04 15:21:33;;;;;;;2.40;0.80;;;;;;;5.40;71.97;97042.72;5085993;28;20130;-66
2022/02/04 15:23:59;;;;;;;2.22;0.55;;;;;;;5.43;72.02;97038.75;5085708;28;20047;-66
2022/02/04 15:26:28;;;;;;;2.45;0.70;;;;;;;5.41;73.09;97044.34;5064534;28;20044;-66
2022/02/04 15:28:59;;;;;;;4.55;0.75;;;;;;;5.28;73.33;97045.38;5065437;28;20051;-66
2022/02/04 15:31:45;;;;;;;1.95;1.25;;;;;;;5.32;72.69;97043.88;5068317;28;20106;-66
2022/02/04 15:34:13;;;;;;;4.68;1.00;;;;;;;5.42;72.63;97031.75;5085560;28;20055;-65
2022/02/04 15:36:43;;;;;;;2.38;1.00;;;;;;;5.29;73.51;97044.31;5085656;28;20504;-66
2022/02/04 15:39:22;;;;;;;3.67;1.20;;;;;;;5.31;73.08;97042.19;5084739;28;20097;-65
2022/02/04 15:41:52;;;;;;;2.83;0.50;;;;;;;5.25;73.28;97040.44;5086053;28;20048;-66
2022/02/04 15:54:43;;;;;;;4.35;1.70;;;;;;;5.16;74.15;97018.44;5071058;28;20057;-66
2022/02/04 16:04:48;;;;;;;4.80;2.25;;;;;;;5.20;74.16;97000.03;5088170;28;20040;-65
2022/02/04 16:07:16;;;;;;;3.50;1.10;;;;;;;5.25;73.93;97002.84;5088728;28;20054;-66
2022/02/04 16:09:46;;;;;;;6.25;3.65;;;;;;;5.16;74.65;96993.47;5088703;28;20044;-66
2022/02/04 16:12:25;;;;;;;5.88;2.67;;;;;;;5.14;74.35;96987.50;5088499;28;20539;-65
2022/02/04 16:15:07;;;;;;;6.30;3.22;;;;;;;5.15;74.83;96991.81;5089011;28;20432;-66
2022/02/04 16:17:38;;;;;;;3.85;1.17;;;;;;;5.23;74.44;96991.50;5088115;28;20052;-65
2022/02/04 16:25:59;;;;;;;2.55;1.20;;;;;;;5.12;74.35;96974.31;5089992;28;20051;-65
2022/02/04 16:30:49;;;;;;;0.82;0.47;;;;;;;5.14;74.13;96982.13;5074943;28;20055;-65
2022/02/04 16:33:16;;;;;;;2.40;0.70;;;;;;;5.16;74.25;96990.81;5089258;28;20113;-65
2022/02/04 16:35:42;;;;;;;1.42;0.52;;;;;;;5.13;74.16;96985.88;5101461;28;20108;-65
2022/02/04 16:38:16;;;;;;;6.65;3.55;;;;;;;5.12;73.90;96979.69;5084429;28;20086;-65
2022/02/04 16:40:51;;;;;;;14.45;6.10;;;;;;;5.08;74.21;96981.16;5086266;28;20148;-65
2022/02/04 16:43:18;;;;;;;4.97;2.40;;;;;;;5.10;74.25;96984.47;5082073;28;20576;-65
2022/02/04 16:45:45;;;;;;;1.35;0.80;;;;;;;5.10;74.10;96989.00;5087344;28;20043;-66
2022/02/04 16:48:12;;;;;;;7.55;3.70;;;;;;;5.04;74.29;96991.56;5087354;28;20036;-65
2022/02/04 16:50:39;;;;;;;1.35;0.70;;;;;;;5.16;73.93;97006.91;5088300;28;20067;-65
2022/02/04 16:53:05;;;;;;;15.25;4.90;;;;;;;5.05;74.54;97003.91;5088180;28;20693;-65
2022/02/04 16:55:32;;;;;;;8.00;3.22;;;;;;;5.10;75.07;97010.47;5087056;28;20032;-66
2022/02/04 16:57:58;;;;;;;8.48;3.40;;;;;;;5.00;75.08;97006.47;5086670;28;20465;-65
2022/02/04 17:00:26;;;;;;;7.28;3.50;;;;;;;4.97;74.81;97011.47;5091430;28;20092;-67
2022/02/04 17:03:00;;;;;;;15.23;8.07;;;;;;;4.97;75.30;97012.28;5101819;28;20050;-65
2022/02/04 17:05:36;;;;;;;8.40;4.80;;;;;;;4.97;75.18;97004.22;5097783;28;20051;-65
2022/02/04 17:08:07;;;;;;;11.32;6.20;;;;;;;4.94;75.52;97004.69;5085441;28;20538;-65
2022/02/04 17:10:39;;;;;;;10.23;5.53;;;;;;;4.95;75.89;97004.44;5086877;28;20507;-66
2022/02/04 17:13:05;;;;;;;2.03;0.93;;;;;;;4.95;75.77;97017.06;5067985;28;20048;-65
2022/02/04 17:15:35;;;;;;;3.75;1.60;;;;;;;5.06;75.62;97010.13;5092753;28;20073;-65
2022/02/04 17:18:04;;;;;;;3.92;2.10;;;;;;;4.95;76.20;97017.84;5087565;28;20060;-65
2022/02/04 17:20:31;;;;;;;7.20;3.63;;;;;;;4.93;76.08;97016.44;5087475;28;20527;-65
2022/02/04 17:23:02;;;;;;;3.58;1.58;;;;;;;4.92;76.50;97023.69;5087557;28;20048;-65
2022/02/04 17:25:29;;;;;;;5.07;2.50;;;;;;;4.90;76.65;97022.28;5087015;28;20058;-66
2022/02/04 17:27:57;;;;;;;2.90;1.55;;;;;;;4.81;77.16;97019.91;5087367;28;20040;-66
2022/02/04 17:30:25;;;;;;;5.75;3.55;;;;;;;4.68;78.12;97012.78;5087049;28;20044;-65
2022/02/04 17:32:53;;;;;;;2.72;1.20;;;;;;;4.59;78.80;97024.03;5086848;28;20118;-65
2022/02/04 17:35:22;;;;;;;2.65;1.80;;;;;;;4.48;79.58;97021.06;5087179;28;20492;-65
2022/02/04 17:37:51;;;;;;;5.82;2.17;;;;;;;4.40;79.78;97026.69;5087126;28;20036;-65
2022/02/04 17:40:19;;;;;;;2.72;1.35;;;;;;;4.34;80.34;97027.56;5079811;28;20044;-65
2022/02/04 17:42:47;;;;;;;3.05;1.20;;;;;;;4.37;80.67;97027.13;5078366;28;20060;-65
2022/02/04 17:45:18;;;;;;;4.15;1.73;;;;;;;4.29;80.92;97034.44;5081385;28;20109;-65
2022/02/04 17:47:53;;;;;;;3.28;1.35;;;;;;;4.37;80.33;97032.50;5078484;28;20292;-66
2022/02/04 17:50:27;;;;;;;3.15;1.48;;;;;;;4.37;80.22;97037.84;5080135;28;20457;-66
2022/02/04 17:53:19;;;;;;;2.85;1.33;;;;;;;4.47;80.04;97043.56;5083408;28;20086;-64
2022/02/04 17:55:47;;;;;;;4.97;1.95;;;;;;;4.58;79.44;97036.63;5081442;28;20036;-65
2022/02/04 18:06:08;;;;;;;1.77;0.80;;;;;;;4.81;78.65;97040.53;5068459;28;20032;-72
2022/02/04 18:08:34;;;;;;;1.33;0.63;;;;;;;4.91;77.87;97037.31;5081051;28;20048;-62
2022/02/04 18:11:03;;;;;;;0.68;0.40;;;;;;;4.91;77.83;97040.00;5075708;28;20086;-62
2022/02/04 18:13:31;;;;;;;1.00;0.55;;;;;;;5.01;77.51;97051.03;5086285;28;20113;-62
2022/02/04 18:16:00;;;;;;;2.03;0.82;;;;;;;5.00;77.40;97048.56;5074240;28;20743;-60
2022/02/04 18:18:28;;;;;;;3.25;0.73;;;;;;;5.13;84.35;97039.56;5078893;28;20056;-59
2022/02/04 18:20:55;;;;;;;1.45;0.70;;;;;;;5.00;77.96;97038.66;5072783;28;20101;-60
2022/02/04 18:23:23;;;;;;;1.38;0.73;;;;;;;5.05;79.22;97052.22;5081039;28;20094;-60
2022/02/04 18:25:51;;;;;;;3.50;1.20;;;;;;;5.08;78.50;97045.59;5083463;28;20093;-60
2022/02/04 18:28:20;;;;;;;1.63;0.60;;;;;;;5.05;77.91;97038.81;5081501;28;20058;-58
2022/02/04 18:30:47;;;;;;;2.35;1.10;;;;;;;5.05;79.08;97051.41;5074044;28;20041;-59
2022/02/04 18:33:15;;;;;;;1.65;0.70;;;;;;;5.60;80.27;97055.88;5075689;28;20039;-59